createdAt,value
2018-09-15T00:02:22.972Z,2.50
2018-09-15T00:04:51.437Z,2.57
2018-09-15T00:07:19.855Z,2.97
2018-09-15T00:09:48.307Z,2.90
2018-09-15T00:12:16.735Z,2.90
2018-09-15T00:14:45.267Z,2.47
2018-09-15T00:17:13.927Z,3.03
2018-09-15T00:19:42.616Z,2.97
2018-09-15T00:22:11.050Z,3.10
2018-09-15T00:24:39.590Z,3.30
2018-09-15T00:27:08.054Z,3.23
2018-09-15T00:29:36.512Z,3.80
2018-09-15T00:32:04.893Z,3.47
2018-09-15T00:34:33.293Z,3.93
2018-09-15T00:37:01.834Z,3.40
2018-09-15T00:39:30.242Z,3.80
2018-09-15T00:41:58.643Z,3.90
2018-09-15T00:44:27.274Z,4.53
2018-09-15T00:46:55.668Z,4.47
2018-09-15T00:49:24.115Z,4.23
2018-09-15T00:51:52.920Z,4.70
2018-09-15T00:54:21.401Z,4.50
2018-09-15T00:56:50.082Z,5.33
2018-09-15T00:59:18.578Z,5.47
2018-09-15T01:01:47.107Z,4.80
2018-09-15T01:04:15.902Z,5.40
2018-09-15T01:06:44.377Z,5.47
2018-09-15T01:09:12.862Z,5.63
2018-09-15T01:11:41.413Z,6.23
2018-09-15T01:14:09.825Z,5.67
2018-09-15T01:16:38.252Z,6.17
2018-09-15T01:19:06.753Z,5.73
2018-09-15T01:21:35.205Z,5.00
2018-09-15T01:24:03.653Z,5.40
2018-09-15T01:26:32.212Z,5.67
2018-09-15T01:29:00.652Z,5.50
2018-09-15T01:31:29.205Z,4.77
2018-09-15T01:33:57.728Z,5.03
2018-09-15T01:36:26.188Z,5.33
2018-09-15T01:38:54.551Z,4.50
2018-09-15T01:41:22.949Z,4.50
2018-09-15T01:43:51.576Z,4.47
2018-09-15T01:46:20.138Z,4.40
2018-09-15T01:48:48.809Z,3.80
2018-09-15T01:51:17.325Z,3.63
2018-09-15T01:53:45.782Z,3.73
2018-09-15T01:56:14.286Z,3.47
2018-09-15T01:58:42.866Z,4.00
2018-09-15T02:01:11.444Z,3.73
2018-09-15T02:03:39.812Z,3.40
2018-09-15T02:06:08.339Z,3.20
2018-09-15T02:08:36.742Z,3.50
2018-09-15T02:11:05.288Z,2.70
2018-09-15T02:13:33.820Z,2.37
2018-09-15T02:16:02.220Z,2.70
2018-09-15T02:18:30.874Z,3.03
2018-09-15T02:20:59.304Z,2.60
2018-09-15T02:23:27.809Z,2.50
2018-09-15T02:25:57.084Z,2.80
2018-09-15T02:28:25.561Z,2.70
2018-09-15T02:30:54.018Z,2.20
2018-09-15T02:33:22.445Z,2.10
2018-09-15T02:35:50.856Z,2.00
2018-09-15T02:38:19.248Z,1.80
2018-09-15T02:40:47.719Z,2.20
2018-09-15T02:43:16.297Z,1.90
2018-09-15T02:45:44.789Z,2.00
2018-09-15T02:48:13.236Z,1.93
2018-09-15T02:50:41.844Z,1.90
2018-09-15T02:53:10.200Z,2.20
2018-09-15T02:55:38.706Z,1.80
2018-09-15T02:58:07.240Z,2.30
2018-09-15T03:00:35.654Z,1.90
2018-09-15T03:03:04.069Z,2.00
2018-09-15T03:05:32.794Z,2.17
2018-09-15T03:08:01.308Z,1.90
2018-09-15T03:10:29.782Z,1.80
2018-09-15T03:12:58.186Z,2.00
2018-09-15T03:15:26.743Z,2.30
2018-09-15T03:17:55.250Z,1.87
2018-09-15T03:20:23.752Z,1.87
2018-09-15T03:22:52.132Z,2.27
2018-09-15T03:25:20.800Z,2.13
2018-09-15T03:27:49.261Z,2.10
2018-09-15T03:30:17.665Z,2.20
2018-09-15T03:32:46.208Z,2.10
2018-09-15T03:35:14.794Z,2.17
2018-09-15T03:37:43.294Z,2.00
2018-09-15T03:40:11.765Z,2.13
2018-09-15T03:42:40.270Z,2.27
2018-09-15T03:45:08.743Z,2.07
2018-09-15T03:47:37.246Z,2.20
2018-09-15T03:50:05.788Z,2.27
2018-09-15T03:52:34.321Z,1.73
2018-09-15T03:55:02.834Z,2.07
2018-09-15T03:57:31.331Z,2.07
2018-09-15T03:59:59.778Z,2.33
2018-09-15T04:02:28.144Z,2.33
2018-09-15T04:04:56.817Z,2.13
2018-09-15T04:07:25.288Z,2.20
2018-09-15T04:09:53.757Z,2.20
2018-09-15T04:12:22.231Z,2.17
2018-09-15T04:14:50.614Z,2.40
2018-09-15T04:17:19.116Z,2.20
2018-09-15T04:19:47.522Z,2.37
2018-09-15T04:22:15.902Z,2.20
2018-09-15T04:24:44.290Z,2.40
2018-09-15T04:27:12.716Z,1.73
2018-09-15T04:29:41.157Z,1.97
2018-09-15T04:32:09.584Z,1.93
2018-09-15T04:34:37.944Z,2.03
2018-09-15T04:37:06.377Z,2.10
2018-09-15T04:39:34.965Z,2.50
2018-09-15T04:42:03.355Z,2.50
2018-09-15T04:44:31.768Z,2.17
2018-09-15T04:47:00.205Z,2.10
2018-09-15T04:49:28.544Z,2.17
2018-09-15T04:51:56.950Z,2.10
2018-09-15T04:54:25.412Z,2.10
2018-09-15T04:56:53.894Z,2.20
2018-09-15T04:59:22.357Z,2.60
2018-09-15T05:01:50.745Z,2.47
2018-09-15T05:04:19.265Z,2.30
2018-09-15T05:06:47.759Z,2.53
2018-09-15T05:09:16.152Z,2.10
2018-09-15T05:11:44.668Z,2.47
2018-09-15T05:14:13.152Z,2.27
2018-09-15T05:16:41.604Z,2.00
2018-09-15T05:19:10.085Z,2.27
2018-09-15T05:21:38.484Z,2.70
2018-09-15T05:24:07.344Z,2.30
2018-09-15T05:26:35.780Z,2.43
2018-09-15T05:29:04.235Z,2.10
2018-09-15T05:31:32.706Z,2.57
2018-09-15T05:34:01.088Z,2.53
2018-09-15T05:36:29.509Z,2.13
2018-09-15T05:38:58.028Z,2.33
2018-09-15T05:41:26.412Z,2.70
2018-09-15T05:43:54.904Z,2.37
2018-09-15T05:46:23.248Z,2.63
2018-09-15T05:48:51.605Z,2.37
2018-09-15T05:51:20.021Z,2.60
2018-09-15T05:53:48.486Z,2.43
2018-09-15T05:56:16.980Z,2.27
2018-09-15T05:58:45.366Z,2.40
2018-09-15T06:01:13.863Z,2.57
2018-09-15T06:03:42.442Z,2.50
2018-09-15T06:06:10.920Z,2.90
2018-09-15T06:08:39.422Z,3.23
2018-09-15T06:11:07.889Z,2.40
2018-09-15T06:13:36.386Z,2.50
2018-09-15T06:16:04.930Z,2.57
2018-09-15T06:18:33.408Z,2.37
2018-09-15T06:21:01.816Z,2.33
2018-09-15T06:23:30.185Z,2.60
2018-09-15T06:25:58.631Z,2.57
2018-09-15T06:28:27.005Z,2.47
2018-09-15T06:30:55.461Z,2.57
2018-09-15T06:33:23.871Z,2.70
2018-09-15T06:35:52.343Z,2.70
2018-09-15T06:38:20.768Z,2.90
2018-09-15T06:40:49.429Z,2.50
2018-09-15T06:43:17.813Z,2.27
2018-09-15T06:45:46.355Z,2.70
2018-09-15T06:48:14.736Z,2.90
2018-09-15T06:50:43.199Z,2.57
2018-09-15T06:53:11.628Z,2.63
2018-09-15T06:55:40.262Z,2.90
2018-09-15T06:58:08.706Z,3.10
2018-09-15T07:00:37.212Z,2.47
2018-09-15T07:03:05.811Z,2.67
2018-09-15T07:05:34.166Z,2.33
2018-09-15T07:08:02.600Z,2.80
2018-09-15T07:10:31.142Z,2.80
2018-09-15T07:12:59.715Z,2.50
2018-09-15T07:15:28.358Z,3.30
2018-09-15T07:17:56.806Z,3.37
2018-09-15T07:20:25.370Z,2.77
2018-09-15T07:22:53.796Z,2.73
2018-09-15T07:25:22.265Z,3.43
2018-09-15T07:27:50.755Z,2.73
2018-09-15T07:30:19.196Z,2.60
2018-09-15T07:32:47.804Z,2.47
2018-09-15T07:35:16.284Z,2.70
2018-09-15T07:37:44.956Z,3.10
2018-09-15T07:40:13.236Z,2.43
2018-09-15T07:42:41.791Z,3.13
2018-09-15T07:45:10.256Z,3.20
2018-09-15T07:47:38.784Z,3.60
2018-09-15T07:50:07.244Z,2.90
2018-09-15T07:52:35.657Z,3.60
2018-09-15T07:55:04.122Z,3.10
2018-09-15T07:57:32.699Z,2.80
2018-09-15T08:00:01.058Z,3.67
2018-09-15T08:02:29.748Z,3.13
2018-09-15T08:04:58.264Z,3.07
2018-09-15T08:07:26.804Z,3.60
2018-09-15T08:09:55.233Z,3.03
2018-09-15T08:12:23.625Z,2.77
2018-09-15T08:14:52.116Z,3.10
2018-09-15T08:17:20.616Z,3.20
2018-09-15T08:19:56.775Z,2.77
2018-09-15T08:22:25.277Z,4.03
2018-09-15T08:24:53.736Z,4.00
2018-09-15T08:27:22.204Z,3.60
2018-09-15T08:29:50.804Z,4.20
2018-09-15T08:32:19.366Z,3.67
2018-09-15T08:34:47.877Z,2.87
2018-09-15T08:37:16.862Z,3.33
2018-09-15T08:39:45.586Z,4.13
2018-09-15T08:42:14.040Z,3.67
2018-09-15T08:44:42.492Z,3.37
2018-09-15T08:47:10.971Z,3.60
2018-09-15T08:49:39.563Z,3.17
2018-09-15T08:52:08.192Z,3.07
2018-09-15T08:54:37.037Z,2.90
2018-09-15T08:57:05.492Z,3.23
2018-09-15T08:59:34.100Z,3.10
2018-09-15T09:02:02.549Z,3.93
2018-09-15T09:04:35.053Z,3.33
2018-09-15T09:07:03.512Z,3.23
2018-09-15T09:09:32.011Z,2.77
2018-09-15T09:12:00.446Z,3.47
2018-09-15T09:14:28.865Z,3.17
2018-09-15T09:16:57.346Z,3.23
2018-09-15T09:19:25.835Z,3.37
2018-09-15T09:21:54.250Z,3.37
2018-09-15T09:24:22.685Z,3.47
2018-09-15T09:26:51.146Z,3.83
2018-09-15T09:29:19.553Z,3.33
2018-09-15T09:31:47.941Z,4.37
2018-09-15T09:34:16.448Z,3.27
2018-09-15T09:36:44.900Z,3.20
2018-09-15T09:39:14.042Z,3.30
2018-09-15T09:41:43.116Z,3.17
2018-09-15T09:44:48.239Z,3.00
2018-09-15T09:47:20.481Z,2.83
2018-09-15T09:49:51.042Z,2.90
2018-09-15T09:52:23.580Z,2.43
2018-09-15T09:54:55.550Z,2.60
2018-09-15T09:57:27.983Z,2.87
2018-09-15T10:00:32.585Z,2.50
2018-09-15T10:03:03.267Z,2.80
2018-09-15T10:08:15.109Z,2.67
2018-09-15T10:10:45.607Z,2.67
2018-09-15T10:15:56.728Z,2.53
2018-09-15T10:18:25.084Z,2.03
2018-09-15T10:20:53.782Z,1.87
2018-09-15T10:23:22.373Z,2.30
2018-09-15T10:25:50.792Z,2.70
2018-09-15T10:28:19.217Z,2.20
2018-09-15T10:30:47.644Z,2.67
2018-09-15T10:33:16.037Z,3.00
2018-09-15T10:35:44.468Z,2.37
2018-09-15T10:38:13.003Z,1.87
2018-09-15T10:40:41.533Z,1.93
2018-09-15T10:43:10.042Z,2.10
2018-09-15T10:45:38.574Z,1.40
2018-09-15T10:48:07.217Z,1.53
2018-09-15T10:50:35.818Z,1.63
2018-09-15T10:53:04.332Z,1.50
2018-09-15T10:55:32.933Z,1.20
2018-09-15T10:58:01.476Z,1.50
2018-09-15T11:00:30.120Z,1.67
2018-09-15T11:02:58.528Z,1.50
2018-09-15T11:05:27.049Z,1.50
2018-09-15T11:07:55.553Z,1.37
2018-09-15T11:10:24.003Z,1.40
2018-09-15T11:12:52.784Z,1.77
2018-09-15T11:15:21.357Z,1.40
2018-09-15T11:17:49.939Z,1.60
2018-09-15T11:20:18.477Z,1.77
2018-09-15T11:22:47.128Z,1.60
2018-09-15T11:25:15.540Z,1.40
2018-09-15T11:27:44.005Z,1.03
2018-09-15T11:30:12.712Z,1.60
2018-09-15T11:32:41.353Z,2.70
2018-09-15T11:35:09.804Z,1.30
2018-09-15T11:37:38.897Z,1.50
2018-09-15T11:40:07.338Z,1.97
2018-09-15T11:42:36.014Z,1.17
2018-09-15T11:45:04.440Z,1.57
2018-09-15T11:47:32.875Z,1.53
2018-09-15T11:50:01.270Z,1.20
2018-09-15T11:52:29.751Z,1.40
2018-09-15T11:54:58.173Z,1.60
2018-09-15T11:57:26.805Z,1.50
2018-09-15T11:59:55.380Z,1.40
2018-09-15T12:02:30.018Z,1.40
2018-09-15T12:04:58.768Z,1.27
2018-09-15T12:07:27.938Z,1.33
2018-09-15T12:09:57.180Z,1.03
2018-09-15T12:12:25.757Z,1.20
2018-09-15T12:14:54.189Z,0.97
2018-09-15T12:17:22.670Z,1.00
2018-09-15T12:19:51.232Z,1.30
2018-09-15T12:22:19.943Z,0.87
2018-09-15T12:24:48.670Z,1.07
2018-09-15T12:27:17.121Z,0.97
2018-09-15T12:29:45.697Z,1.00
2018-09-15T12:32:14.357Z,0.90
2018-09-15T12:34:43.741Z,1.13
2018-09-15T12:37:13.213Z,1.20
2018-09-15T12:39:41.771Z,0.90
2018-09-15T12:42:10.175Z,1.10
2018-09-15T12:44:39.041Z,0.97
2018-09-15T12:47:07.576Z,1.17
2018-09-15T12:49:35.975Z,1.10
2018-09-15T12:52:04.524Z,1.10
2018-09-15T12:54:32.976Z,1.20
2018-09-15T12:57:01.479Z,1.00
2018-09-15T12:59:30.222Z,1.13
2018-09-15T13:01:58.719Z,1.37
2018-09-15T13:04:27.237Z,1.13
2018-09-15T13:06:55.661Z,1.23
2018-09-15T13:09:24.093Z,1.50
2018-09-15T13:11:52.534Z,1.13
2018-09-15T13:14:20.920Z,1.20
2018-09-15T13:16:49.468Z,1.10
2018-09-15T13:19:18.040Z,1.20
2018-09-15T13:21:46.529Z,0.90
2018-09-15T13:24:15.012Z,1.07
2018-09-15T13:26:43.473Z,1.40
2018-09-15T13:29:12.026Z,0.93
2018-09-15T13:31:40.791Z,1.23
2018-09-15T13:34:09.340Z,1.30
2018-09-15T13:36:40.339Z,1.23
2018-09-15T13:39:13.737Z,1.30
2018-09-15T13:41:47.894Z,1.50
2018-09-15T13:44:21.000Z,1.60
2018-09-15T13:47:14.601Z,1.50
2018-09-15T13:50:01.681Z,1.20
2018-09-15T13:55:15.673Z,1.27
2018-09-15T13:57:44.229Z,1.30
2018-09-15T14:00:12.665Z,0.90
2018-09-15T14:02:42.098Z,1.10
2018-09-15T14:05:11.785Z,1.10
2018-09-15T14:07:40.728Z,1.37
2018-09-15T14:10:09.445Z,1.20
2018-09-15T14:12:38.434Z,1.10
2018-09-15T14:15:07.020Z,1.00
2018-09-15T14:17:35.577Z,1.00
2018-09-15T14:20:04.446Z,1.30
2018-09-15T14:22:32.981Z,1.20
2018-09-15T14:25:01.348Z,1.27
2018-09-15T14:27:30.168Z,1.30
2018-09-15T14:30:05.896Z,1.43
2018-09-15T14:32:41.233Z,1.40
2018-09-15T14:35:37.980Z,1.20
2018-09-15T14:38:11.003Z,1.17
2018-09-15T14:40:42.726Z,1.73
2018-09-15T14:56:01.854Z,1.40
2018-09-15T14:58:30.208Z,1.33
2018-09-15T15:00:59.455Z,1.35
2018-09-15T15:03:33.489Z,1.27
2018-09-15T15:06:02.024Z,1.10
2018-09-15T15:08:31.396Z,1.10
2018-09-15T15:11:02.210Z,0.90
2018-09-15T15:13:30.970Z,1.20
2018-09-15T15:16:00.367Z,0.70
2018-09-15T15:18:28.920Z,0.93
2018-09-15T15:20:58.033Z,1.17
2018-09-15T15:23:26.562Z,0.97
2018-09-15T15:25:55.025Z,1.10
2018-09-15T15:28:23.646Z,1.00
2018-09-15T15:30:52.142Z,15.47
2018-09-15T15:33:21.898Z,2.83
2018-09-15T15:35:51.033Z,2.07
2018-09-15T15:38:20.521Z,1.90
2018-09-15T15:40:50.640Z,2.17
2018-09-15T15:43:19.531Z,2.13
2018-09-15T15:45:52.947Z,1.87
2018-09-15T15:48:21.472Z,1.43
2018-09-15T15:50:50.093Z,1.80
2018-09-15T15:53:19.902Z,2.50
2018-09-15T15:55:48.634Z,2.93
2018-09-15T15:58:17.089Z,2.23
2018-09-15T16:00:45.739Z,2.77
2018-09-15T16:03:15.168Z,4.40
2018-09-15T16:05:43.617Z,2.83
2018-09-15T16:08:12.170Z,3.10
2018-09-15T16:10:47.930Z,3.30
2018-09-15T16:13:19.760Z,2.40
2018-09-15T16:15:48.457Z,2.60
2018-09-15T16:18:16.898Z,1.03
2018-09-15T16:20:45.344Z,0.90
2018-09-15T16:23:13.817Z,1.30
2018-09-15T16:25:42.319Z,1.43
2018-09-15T16:28:10.821Z,1.10
2018-09-15T16:30:39.388Z,1.47
2018-09-15T16:33:07.797Z,1.50
2018-09-15T16:35:36.281Z,1.20
2018-09-15T16:38:04.765Z,1.00
2018-09-15T16:40:33.386Z,1.10
2018-09-15T16:43:02.428Z,0.87
2018-09-15T16:45:40.189Z,1.10
2018-09-15T16:48:09.032Z,0.90
2018-09-15T16:50:37.678Z,1.00
2018-09-15T16:53:06.253Z,0.80
2018-09-15T16:55:37.013Z,0.90
2018-09-15T16:58:05.684Z,1.00
2018-09-15T17:00:34.272Z,0.93
2018-09-15T17:03:13.659Z,1.27
2018-09-15T17:05:42.210Z,1.00
2018-09-15T17:08:11.748Z,0.90
2018-09-15T17:10:40.633Z,0.93
2018-09-15T17:13:09.101Z,1.20
2018-09-15T17:15:38.432Z,1.30
2018-09-15T17:18:06.993Z,1.10
2018-09-15T17:20:35.637Z,1.03
2018-09-15T17:23:04.138Z,0.90
2018-09-15T17:25:32.674Z,1.10
2018-09-15T17:28:01.200Z,1.13
2018-09-15T17:30:30.025Z,1.30
2018-09-15T17:32:58.520Z,1.00
2018-09-15T17:35:26.952Z,1.40
2018-09-15T17:37:55.425Z,1.50
2018-09-15T17:40:23.916Z,1.72
2018-09-15T17:42:52.442Z,1.53
2018-09-15T17:45:21.119Z,2.47
2018-09-15T17:47:49.549Z,2.20
2018-09-15T17:50:18.152Z,2.20
2018-09-15T17:52:46.722Z,1.70
2018-09-15T17:55:15.236Z,2.13
2018-09-15T17:57:43.726Z,1.70
2018-09-15T18:00:12.260Z,1.83
2018-09-15T18:02:40.733Z,1.87
2018-09-15T18:05:09.223Z,1.87
2018-09-15T18:07:37.773Z,1.77
2018-09-15T18:10:06.392Z,2.00
2018-09-15T18:12:34.822Z,2.03
2018-09-15T18:15:03.343Z,1.90
2018-09-15T18:17:32.087Z,1.90
2018-09-15T18:20:00.517Z,1.70
2018-09-15T18:22:28.985Z,1.73
2018-09-15T18:24:57.533Z,1.70
2018-09-15T18:27:26.048Z,1.53
2018-09-15T18:29:54.654Z,1.87
2018-09-15T18:32:23.168Z,2.10
2018-09-15T18:34:51.646Z,2.13
2018-09-15T18:37:20.227Z,1.47
2018-09-15T18:39:48.751Z,2.27
2018-09-15T18:42:17.290Z,2.30
2018-09-15T18:44:45.909Z,2.63
2018-09-15T18:47:14.446Z,2.20
2018-09-15T18:49:42.997Z,2.37
2018-09-15T18:52:11.474Z,2.10
2018-09-15T18:54:40.025Z,1.90
2018-09-15T18:57:08.787Z,2.00
2018-09-15T18:59:37.531Z,1.90
2018-09-15T19:02:06.089Z,2.20
2018-09-15T19:04:34.609Z,1.83
2018-09-15T19:07:03.249Z,2.00
2018-09-15T19:09:31.898Z,2.17
2018-09-15T19:12:00.309Z,1.97
2018-09-15T19:14:28.834Z,2.07
2018-09-15T19:16:57.299Z,2.00
2018-09-15T19:19:25.808Z,1.73
2018-09-15T19:21:54.385Z,1.80
2018-09-15T19:24:22.953Z,1.67
2018-09-15T19:26:51.483Z,2.30
2018-09-15T19:29:19.944Z,1.93
2018-09-15T19:31:48.439Z,1.70
2018-09-15T19:34:16.930Z,2.13
2018-09-15T19:36:45.523Z,2.20
2018-09-15T19:39:15.020Z,2.00
2018-09-15T19:41:43.512Z,1.93
2018-09-15T19:44:12.021Z,2.50
2018-09-15T19:46:40.534Z,2.40
2018-09-15T19:49:09.865Z,2.40
2018-09-15T19:51:38.465Z,3.00
2018-09-15T19:54:07.087Z,2.90
2018-09-15T19:56:35.597Z,2.83
2018-09-15T19:59:04.083Z,3.17
2018-09-15T20:01:32.673Z,3.10
2018-09-15T20:04:01.197Z,2.70
2018-09-15T20:06:29.673Z,2.50
2018-09-15T20:08:58.196Z,3.30
2018-09-15T20:11:26.625Z,3.07
2018-09-15T20:14:00.884Z,2.90
2018-09-15T20:16:28.269Z,2.97
2018-09-15T20:18:56.810Z,3.07
2018-09-15T20:21:24.080Z,3.20
2018-09-15T20:23:53.199Z,3.40
2018-09-15T20:26:25.684Z,3.10
2018-09-15T20:28:54.485Z,3.37
2018-09-15T20:31:23.119Z,3.43
2018-09-15T20:33:51.656Z,3.50
2018-09-15T20:36:20.182Z,3.50
2018-09-15T20:38:49.127Z,3.43
2018-09-15T20:41:17.653Z,3.57
2018-09-15T20:43:46.098Z,3.40
2018-09-15T20:46:14.700Z,4.00
2018-09-15T20:48:43.182Z,3.67
2018-09-15T20:51:12.073Z,3.87
2018-09-15T20:53:40.564Z,3.50
2018-09-15T20:56:09.134Z,3.73
2018-09-15T20:58:37.567Z,3.57
2018-09-15T21:01:06.096Z,3.93
2018-09-15T21:03:34.616Z,3.33
2018-09-15T21:06:03.419Z,3.80
2018-09-15T21:08:31.991Z,3.97
2018-09-15T21:11:00.474Z,4.03
2018-09-15T21:13:28.980Z,3.70
2018-09-15T21:15:57.503Z,3.80
2018-09-15T21:18:25.965Z,3.90
2018-09-15T21:20:54.382Z,3.83
2018-09-15T21:23:22.791Z,3.83
2018-09-15T21:25:51.332Z,3.60
2018-09-15T21:28:20.048Z,3.97
2018-09-15T21:30:48.772Z,3.10
2018-09-15T21:33:17.393Z,3.40
2018-09-15T21:35:46.003Z,3.37
2018-09-15T21:38:14.462Z,3.10
2018-09-15T21:40:42.906Z,3.50
2018-09-15T21:43:11.490Z,3.43
2018-09-15T21:45:39.981Z,3.17
2018-09-15T21:48:08.648Z,3.80
2018-09-15T21:50:37.102Z,3.30
2018-09-15T21:53:05.617Z,3.23
2018-09-15T21:55:34.115Z,3.50
2018-09-15T21:58:02.636Z,3.70
2018-09-15T22:00:31.157Z,3.93
2018-09-15T22:02:59.678Z,4.20
2018-09-15T22:05:28.141Z,3.60
2018-09-15T22:07:56.644Z,3.83
2018-09-15T22:10:25.400Z,4.23
2018-09-15T22:12:53.854Z,4.50
2018-09-15T22:15:27.213Z,4.03
2018-09-15T22:17:58.015Z,4.13
2018-09-15T22:20:26.735Z,4.10
2018-09-15T22:22:55.187Z,3.90
2018-09-15T22:25:23.752Z,4.23
2018-09-15T22:27:52.348Z,4.00
2018-09-15T22:30:20.878Z,4.07
2018-09-15T22:32:49.364Z,3.80
2018-09-15T22:35:17.880Z,3.70
2018-09-15T22:37:46.630Z,3.93
2018-09-15T22:40:15.905Z,3.47
2018-09-15T22:42:44.396Z,3.87
2018-09-15T22:45:12.921Z,3.37
2018-09-15T22:47:41.429Z,4.00
2018-09-15T22:50:10.001Z,4.00
2018-09-15T22:52:38.554Z,4.20
2018-09-15T22:55:07.157Z,3.93
2018-09-15T22:57:35.694Z,3.80
2018-09-15T23:00:04.375Z,3.50
2018-09-15T23:02:32.928Z,3.83
2018-09-15T23:05:01.328Z,3.80
2018-09-15T23:07:30.094Z,3.90
2018-09-15T23:09:58.561Z,3.70
2018-09-15T23:12:26.956Z,3.43
2018-09-15T23:14:55.341Z,3.37
2018-09-15T23:17:23.783Z,3.53
2018-09-15T23:19:54.260Z,4.10
2018-09-15T23:22:22.703Z,3.73
2018-09-15T23:24:51.140Z,3.90
2018-09-15T23:27:19.692Z,4.13
2018-09-15T23:29:48.113Z,3.47
2018-09-15T23:32:16.552Z,3.33
2018-09-15T23:34:44.985Z,3.50
2018-09-15T23:37:13.369Z,3.33
2018-09-15T23:39:41.965Z,3.53
2018-09-15T23:42:10.399Z,3.50
2018-09-15T23:44:38.989Z,3.53
2018-09-15T23:47:07.745Z,3.70
2018-09-15T23:49:37.062Z,3.57
2018-09-15T23:52:05.564Z,3.77
2018-09-15T23:54:34.105Z,3.30
2018-09-15T23:57:02.692Z,3.43
2018-09-15T23:59:31.297Z,3.50
